createdAt,value
2019-03-11T00:02:01.486Z,1.74
2019-03-11T00:04:32.323Z,1.74
2019-03-11T00:07:05.704Z,1.80
2019-03-11T00:09:37.626Z,1.79
2019-03-11T00:12:08.752Z,1.79
2019-03-11T00:14:39.628Z,1.79
2019-03-11T00:17:11.061Z,1.80
2019-03-11T00:19:42.509Z,1.80
2019-03-11T00:22:13.951Z,1.82
2019-03-11T00:24:45.581Z,1.86
2019-03-11T00:27:16.870Z,1.85
2019-03-11T00:29:49.509Z,1.78
2019-03-11T00:32:21.261Z,1.94
2019-03-11T00:34:52.455Z,1.96
2019-03-11T00:37:23.423Z,1.98
2019-03-11T00:39:55.100Z,2.01
2019-03-11T00:42:27.297Z,2.03
2019-03-11T00:44:58.622Z,2.03
2019-03-11T00:47:30.344Z,2.07
2019-03-11T00:50:01.931Z,2.08
2019-03-11T00:52:32.733Z,2.08
2019-03-11T00:55:05.016Z,2.11
2019-03-11T00:57:36.665Z,2.16
2019-03-11T01:00:10.805Z,2.16
2019-03-11T01:02:42.620Z,2.20
2019-03-11T01:05:14.497Z,2.22
2019-03-11T01:07:45.748Z,2.22
2019-03-11T01:10:16.917Z,2.28
2019-03-11T01:12:48.349Z,2.29
2019-03-11T01:15:19.707Z,2.32
2019-03-11T01:17:50.649Z,2.32
2019-03-11T01:20:22.925Z,2.35
2019-03-11T01:22:54.430Z,2.29
2019-03-11T01:25:27.359Z,2.34
2019-03-11T01:27:59.824Z,2.37
2019-03-11T01:30:31.193Z,2.34
2019-03-11T01:33:02.903Z,2.42
2019-03-11T01:35:34.767Z,2.47
2019-03-11T01:38:06.170Z,2.49
2019-03-11T01:40:37.839Z,2.50
2019-03-11T01:43:09.085Z,2.46
2019-03-11T01:45:42.255Z,2.52
2019-03-11T01:48:13.970Z,2.57
2019-03-11T01:50:45.853Z,2.58
2019-03-11T01:53:17.586Z,2.56
2019-03-11T01:55:49.049Z,2.58
2019-03-11T01:58:20.654Z,2.56
2019-03-11T02:00:52.325Z,2.55
2019-03-11T02:03:24.148Z,2.53
2019-03-11T02:05:56.326Z,2.55
2019-03-11T02:08:27.921Z,2.58
2019-03-11T02:10:59.436Z,2.62
2019-03-11T02:13:31.506Z,2.61
2019-03-11T02:16:03.517Z,2.58
2019-03-11T02:18:34.902Z,2.61
2019-03-11T02:21:06.929Z,2.57
2019-03-11T02:23:38.876Z,2.59
2019-03-11T02:26:10.666Z,2.64
2019-03-11T02:28:42.238Z,2.61
2019-03-11T02:31:14.002Z,2.62
2019-03-11T02:33:45.360Z,2.67
2019-03-11T02:36:16.625Z,2.65
2019-03-11T02:38:47.344Z,2.67
2019-03-11T02:41:19.389Z,2.69
2019-03-11T02:43:50.951Z,2.68
2019-03-11T02:46:23.342Z,2.66
2019-03-11T02:48:54.504Z,2.68
2019-03-11T02:51:25.714Z,2.70
2019-03-11T02:53:57.656Z,2.72
2019-03-11T02:56:29.611Z,2.67
2019-03-11T02:59:01.514Z,2.73
2019-03-11T03:01:33.945Z,2.74
2019-03-11T03:04:06.685Z,2.76
2019-03-11T03:06:37.780Z,2.78
2019-03-11T03:09:12.699Z,2.73
2019-03-11T03:11:44.538Z,2.77
2019-03-11T03:14:16.279Z,2.78
2019-03-11T03:16:47.389Z,2.79
2019-03-11T03:19:18.307Z,2.76
2019-03-11T03:21:50.586Z,2.78
2019-03-11T03:24:22.104Z,2.80
2019-03-11T03:26:55.191Z,2.79
2019-03-11T03:29:26.401Z,2.77
2019-03-11T03:31:57.651Z,2.77
2019-03-11T03:34:29.602Z,2.76
2019-03-11T03:37:01.624Z,2.73
2019-03-11T03:39:33.007Z,2.71
2019-03-11T03:42:04.839Z,2.71
2019-03-11T03:44:35.860Z,2.66
2019-03-11T03:47:06.961Z,2.61
2019-03-11T03:49:37.871Z,2.64
2019-03-11T03:52:09.266Z,2.63
2019-03-11T03:54:40.431Z,2.61
2019-03-11T03:57:12.786Z,2.58
2019-03-11T03:59:43.867Z,2.52
2019-03-11T04:02:15.190Z,2.44
2019-03-11T04:04:46.854Z,2.34
2019-03-11T04:07:21.031Z,2.31
2019-03-11T04:09:52.840Z,2.34
2019-03-11T04:12:24.797Z,2.29
2019-03-11T04:14:56.526Z,2.33
2019-03-11T04:17:27.915Z,2.40
2019-03-11T04:20:00.078Z,2.41
2019-03-11T04:23:38.026Z,2.46
2019-03-11T04:26:10.441Z,2.48
2019-03-11T04:28:42.556Z,2.52
2019-03-11T04:31:13.718Z,2.54
2019-03-11T04:33:44.774Z,2.65
2019-03-11T04:36:18.346Z,2.66
2019-03-11T04:38:50.181Z,2.65
2019-03-11T04:41:21.700Z,2.66
2019-03-11T04:43:52.758Z,2.71
2019-03-11T04:46:24.866Z,2.71
2019-03-11T04:48:56.626Z,2.69
2019-03-11T04:51:28.346Z,2.68
2019-03-11T04:54:02.438Z,2.70
2019-03-11T04:56:34.455Z,2.68
2019-03-11T04:59:10.583Z,2.72
2019-03-11T05:01:43.152Z,2.66
2019-03-11T05:04:15.015Z,2.64
2019-03-11T05:06:47.000Z,2.59
2019-03-11T05:09:17.962Z,2.58
2019-03-11T05:11:49.237Z,2.62
2019-03-11T05:14:21.006Z,2.70
2019-03-11T05:16:52.417Z,2.62
2019-03-11T05:19:23.008Z,2.64
2019-03-11T05:21:54.848Z,2.61
2019-03-11T05:24:26.072Z,2.62
2019-03-11T05:26:58.204Z,2.65
2019-03-11T05:29:29.929Z,2.58
2019-03-11T05:32:02.083Z,2.56
2019-03-11T05:34:33.051Z,2.54
2019-03-11T05:37:04.183Z,2.55
2019-03-11T05:39:36.121Z,2.53
2019-03-11T05:42:07.977Z,2.54
2019-03-11T05:44:40.379Z,2.57
2019-03-11T05:47:11.753Z,2.62
2019-03-11T05:49:46.385Z,2.62
2019-03-11T05:52:17.415Z,2.63
2019-03-11T05:54:49.005Z,2.62
2019-03-11T05:57:20.198Z,2.67
2019-03-11T05:59:51.873Z,2.61
2019-03-11T06:02:23.609Z,2.66
2019-03-11T06:04:54.662Z,2.67
2019-03-11T06:07:32.612Z,2.68
2019-03-11T07:08:47.565Z,2.86
2019-03-11T07:11:18.250Z,2.89
2019-03-11T07:13:49.890Z,2.87
2019-03-11T07:16:20.695Z,2.85
2019-03-11T07:18:52.364Z,2.90
2019-03-11T07:21:23.947Z,2.88
2019-03-11T07:23:55.297Z,2.90
2019-03-11T07:26:26.170Z,2.98
2019-03-11T07:28:58.683Z,3.07
2019-03-11T07:31:30.917Z,2.99
2019-03-11T07:34:02.058Z,2.95
2019-03-11T07:36:33.197Z,2.98
2019-03-11T07:39:06.005Z,2.99
2019-03-11T07:41:36.921Z,2.94
2019-03-11T07:44:07.360Z,2.94
2019-03-11T07:46:37.913Z,2.91
2019-03-11T07:49:08.362Z,2.92
2019-03-11T07:51:38.804Z,2.94
2019-03-11T07:54:09.480Z,2.99
2019-03-11T07:56:40.257Z,3.03
2019-03-11T07:59:10.717Z,3.09
2019-03-11T08:01:41.261Z,3.22
2019-03-11T08:04:11.874Z,3.24
2019-03-11T08:06:42.383Z,3.31
2019-03-11T08:09:13.288Z,3.32
2019-03-11T08:11:44.184Z,3.35
2019-03-11T08:14:14.694Z,3.32
2019-03-11T08:16:45.266Z,3.24
2019-03-11T08:19:15.797Z,3.19
2019-03-11T08:21:46.826Z,3.16
2019-03-11T08:24:17.563Z,3.13
2019-03-11T08:26:48.222Z,2.86
2019-03-11T08:29:18.834Z,2.74
2019-03-11T08:31:49.420Z,2.64
2019-03-11T08:34:19.940Z,2.61
2019-03-11T08:36:50.479Z,2.62
2019-03-11T08:39:21.275Z,2.58
2019-03-11T08:41:51.721Z,2.59
2019-03-11T08:44:22.580Z,2.61
2019-03-11T08:46:53.252Z,2.70
2019-03-11T08:49:23.685Z,2.72
2019-03-11T08:51:54.165Z,2.72
2019-03-11T08:54:24.641Z,2.73
2019-03-11T08:56:55.455Z,2.74
2019-03-11T08:59:25.922Z,2.75
2019-03-11T09:01:56.415Z,2.77
2019-03-11T09:04:26.837Z,2.78
2019-03-11T09:06:57.949Z,2.69
2019-03-11T09:09:28.685Z,2.68
2019-03-11T09:11:59.182Z,2.63
2019-03-11T09:14:29.521Z,2.64
2019-03-11T09:17:00.087Z,2.66
2019-03-11T09:19:30.442Z,2.59
2019-03-11T09:22:00.980Z,2.55
2019-03-11T09:24:31.421Z,2.59
2019-03-11T09:27:01.856Z,2.67
2019-03-11T09:29:32.323Z,2.69
2019-03-11T09:32:02.787Z,2.69
2019-03-11T09:34:33.459Z,2.66
2019-03-11T09:37:04.182Z,2.64
2019-03-11T09:39:34.612Z,2.67
2019-03-11T09:42:05.081Z,2.72
2019-03-11T09:44:35.820Z,2.75
2019-03-11T09:47:06.302Z,2.77
2019-03-11T09:49:36.899Z,2.85
2019-03-11T09:52:07.821Z,2.97
2019-03-11T09:54:38.585Z,2.98
2019-03-11T09:57:09.030Z,3.06
2019-03-11T09:59:39.876Z,3.18
2019-03-11T10:02:12.289Z,3.16
2019-03-11T10:04:43.220Z,3.21
2019-03-11T10:07:13.771Z,3.24
2019-03-11T10:09:45.061Z,3.26
2019-03-11T10:12:15.667Z,3.29
2019-03-11T10:14:46.200Z,3.26
2019-03-11T10:17:16.884Z,3.37
2019-03-11T10:19:47.260Z,3.47
2019-03-11T10:22:17.654Z,3.60
2019-03-11T10:24:48.349Z,3.55
2019-03-11T10:27:18.792Z,3.64
2019-03-11T10:29:49.222Z,3.70
2019-03-11T10:32:19.627Z,3.78
2019-03-11T10:34:50.401Z,3.76
2019-03-11T10:37:20.801Z,3.78
2019-03-11T10:39:51.329Z,3.74
2019-03-11T10:42:21.780Z,3.88
2019-03-11T10:44:52.150Z,3.92
2019-03-11T10:47:22.765Z,4.06
2019-03-11T10:49:53.253Z,4.09
2019-03-11T10:52:23.862Z,4.12
2019-03-11T10:54:54.376Z,4.15
2019-03-11T10:57:24.942Z,4.19
2019-03-11T10:59:55.392Z,4.28
2019-03-11T11:02:26.072Z,4.32
2019-03-11T11:04:56.737Z,4.32
2019-03-11T11:07:31.041Z,4.29
2019-03-11T11:10:03.161Z,4.26
2019-03-11T11:12:34.440Z,4.26
2019-03-11T11:15:08.244Z,4.29
2019-03-11T11:17:38.817Z,4.47
2019-03-11T11:20:12.347Z,4.64
2019-03-11T11:22:43.094Z,4.91
2019-03-11T11:25:16.908Z,4.99
2019-03-11T11:27:47.342Z,5.02
2019-03-11T11:30:19.406Z,4.97
2019-03-11T11:32:50.124Z,4.98
2019-03-11T11:35:20.801Z,5.04
2019-03-11T11:37:51.297Z,4.86
2019-03-11T11:40:24.463Z,4.86
2019-03-11T11:42:54.940Z,4.75
2019-03-11T11:45:27.342Z,4.92
2019-03-11T11:47:57.846Z,5.12
2019-03-11T11:50:28.525Z,5.21
2019-03-11T11:52:58.974Z,5.19
2019-03-11T11:55:30.016Z,5.22
2019-03-11T11:58:00.770Z,5.36
2019-03-11T12:00:33.483Z,5.41
2019-03-11T12:03:04.412Z,5.46
2019-03-11T12:05:35.338Z,5.46
2019-03-11T12:08:05.825Z,5.47
2019-03-11T12:10:39.447Z,5.41
2019-03-11T12:13:10.261Z,5.41
2019-03-11T12:15:40.999Z,5.42
2019-03-11T12:18:11.630Z,5.23
2019-03-11T12:20:42.215Z,5.03
2019-03-11T12:23:12.957Z,4.78
2019-03-11T12:25:43.406Z,4.75
2019-03-11T12:28:14.297Z,4.76
2019-03-11T12:30:44.959Z,4.85
2019-03-11T12:33:15.908Z,5.09
2019-03-11T12:35:47.112Z,5.17
2019-03-11T12:38:18.998Z,5.33
2019-03-11T12:40:50.415Z,5.32
2019-03-11T12:43:21.071Z,5.27
2019-03-11T12:45:52.006Z,5.24
2019-03-11T12:48:22.383Z,5.23
2019-03-11T12:50:52.902Z,5.29
2019-03-11T12:53:23.461Z,5.28
2019-03-11T12:55:54.561Z,5.24
2019-03-11T12:58:25.370Z,5.17
2019-03-11T13:00:56.792Z,5.16
2019-03-11T13:03:28.678Z,5.18
2019-03-11T13:05:59.258Z,5.28
2019-03-11T13:08:30.430Z,5.22
2019-03-11T13:11:00.903Z,5.23
2019-03-11T13:13:31.814Z,5.21
2019-03-11T13:16:02.452Z,5.29
2019-03-11T13:18:35.915Z,5.37
2019-03-11T13:21:10.577Z,5.52
2019-03-11T13:23:41.754Z,5.61
2019-03-11T13:26:16.435Z,5.63
2019-03-11T13:28:47.636Z,5.71
2019-03-11T13:31:18.042Z,5.73
2019-03-11T13:33:48.585Z,5.76
2019-03-11T13:36:27.176Z,5.77
2019-03-11T13:38:58.325Z,5.66
2019-03-11T13:41:28.913Z,5.43
2019-03-11T13:43:59.496Z,5.41
2019-03-11T13:46:29.890Z,5.37
2019-03-11T13:49:00.453Z,5.41
2019-03-11T13:51:30.985Z,5.41
2019-03-11T13:54:01.548Z,5.47
2019-03-11T13:56:32.021Z,5.38
2019-03-11T13:59:02.502Z,5.33
2019-03-11T14:01:33.018Z,5.24
2019-03-11T14:04:03.682Z,5.24
2019-03-11T14:06:34.582Z,5.22
2019-03-11T14:09:06.776Z,5.20
2019-03-11T14:11:41.746Z,5.34
2019-03-11T14:14:13.545Z,5.32
2019-03-11T14:16:44.225Z,5.32
2019-03-11T14:19:14.773Z,5.37
2019-03-11T14:21:45.216Z,5.39
2019-03-11T14:24:15.728Z,5.46
2019-03-11T14:26:46.332Z,5.46
2019-03-11T14:29:16.874Z,5.35
2019-03-11T14:31:49.615Z,4.93
2019-03-11T14:34:20.152Z,4.57
2019-03-11T14:36:52.902Z,4.46
2019-03-11T14:39:23.438Z,4.34
2019-03-11T14:41:54.111Z,4.22
2019-03-11T14:44:24.578Z,4.11
2019-03-11T14:46:55.034Z,3.98
2019-03-11T14:49:25.708Z,3.97
2019-03-11T14:51:56.161Z,4.04
2019-03-11T14:54:26.665Z,4.16
2019-03-11T14:56:57.133Z,4.04
2019-03-11T14:59:27.511Z,3.89
2019-03-11T15:01:58.041Z,3.77
2019-03-11T15:04:28.531Z,3.66
2019-03-11T15:06:58.997Z,3.70
2019-03-11T15:09:30.061Z,3.56
2019-03-11T15:12:00.427Z,3.46
2019-03-11T15:14:33.650Z,3.47
2019-03-11T15:17:03.337Z,3.37
2019-03-11T15:19:33.815Z,3.34
2019-03-11T15:22:04.316Z,3.30
2019-03-11T15:24:34.725Z,3.25
2019-03-11T15:27:16.184Z,3.28
2019-03-11T15:29:51.807Z,3.23
2019-03-11T15:32:22.364Z,3.19
2019-03-11T15:34:52.859Z,3.32
2019-03-11T15:37:24.763Z,3.40
2019-03-11T15:39:55.295Z,3.38
2019-03-11T15:42:25.777Z,3.40
2019-03-11T15:44:56.416Z,3.41
2019-03-11T15:47:27.090Z,3.46
2019-03-11T15:49:58.477Z,3.52
2019-03-11T15:52:28.908Z,3.51
2019-03-11T15:54:59.443Z,3.53
2019-03-11T15:57:38.739Z,3.41
2019-03-11T16:00:03.494Z,3.38
2019-03-11T16:02:35.525Z,3.27
2019-03-11T16:05:05.973Z,3.03
2019-03-11T16:07:36.458Z,2.86
2019-03-11T16:10:16.728Z,2.51
2019-03-11T16:12:47.782Z,2.32
2019-03-11T16:15:20.029Z,2.27
2019-03-11T16:17:50.556Z,2.17
2019-03-11T16:20:22.609Z,2.17
2019-03-11T16:22:52.989Z,2.05
2019-03-11T16:25:23.394Z,2.04
2019-03-11T16:27:54.984Z,2.17
2019-03-11T16:30:26.573Z,2.19
2019-03-11T16:33:06.175Z,2.24
2019-03-11T16:35:36.624Z,2.23
2019-03-11T16:38:07.230Z,2.23
2019-03-11T16:40:38.216Z,2.19
2019-03-11T16:43:08.956Z,2.18
2019-03-11T16:45:39.564Z,2.17
2019-03-11T16:48:11.929Z,2.13
2019-03-11T16:50:45.983Z,2.13
2019-03-11T16:53:19.698Z,2.10
2019-03-11T16:55:51.841Z,2.17
2019-03-11T16:58:23.616Z,2.09
2019-03-11T17:00:55.907Z,2.20
2019-03-11T17:03:26.367Z,2.33
2019-03-11T17:05:56.919Z,2.38
2019-03-11T17:08:28.146Z,2.40
2019-03-11T17:11:00.372Z,2.46
2019-03-11T17:13:34.166Z,2.48
2019-03-11T17:16:05.723Z,2.41
2019-03-11T17:18:36.986Z,2.46
2019-03-11T17:21:07.466Z,2.48
2019-03-11T17:23:38.442Z,2.51
2019-03-11T17:26:09.004Z,2.53
2019-03-11T17:28:40.091Z,2.48
2019-03-11T17:31:10.553Z,2.43
2019-03-11T17:33:41.089Z,2.46
2019-03-11T17:36:12.865Z,2.48
2019-03-11T17:38:43.454Z,2.48
2019-03-11T17:41:14.430Z,2.48
2019-03-11T17:43:45.523Z,2.44
2019-03-11T17:46:16.511Z,2.50
2019-03-11T17:48:47.100Z,2.55
2019-03-11T17:51:17.805Z,2.57
2019-03-11T17:53:48.724Z,2.53
2019-03-11T17:56:19.550Z,2.62
2019-03-11T17:58:50.103Z,2.61
2019-03-11T18:01:21.281Z,2.69
2019-03-11T18:03:52.021Z,2.66
2019-03-11T18:06:22.723Z,2.69
2019-03-11T18:08:53.827Z,2.67
2019-03-11T18:11:24.907Z,2.78
2019-03-11T18:13:56.433Z,2.76
2019-03-11T18:16:26.994Z,2.74
2019-03-11T18:18:57.622Z,2.71
2019-03-11T18:21:28.742Z,2.65
2019-03-11T18:23:59.854Z,2.65
2019-03-11T18:26:30.302Z,2.60
2019-03-11T18:29:00.821Z,2.62
2019-03-11T18:31:34.372Z,2.66
2019-03-11T18:34:05.142Z,2.63
2019-03-11T18:36:35.994Z,2.62
2019-03-11T18:39:07.922Z,2.57
2019-03-11T18:41:38.799Z,2.63
2019-03-11T18:44:11.367Z,2.67
2019-03-11T18:46:43.899Z,2.69
2019-03-11T18:49:18.259Z,2.65
2019-03-11T18:51:50.428Z,2.65
2019-03-11T18:54:25.077Z,2.68
2019-03-11T18:56:56.259Z,2.72
2019-03-11T18:59:26.730Z,2.72
2019-03-11T19:01:57.535Z,2.64
2019-03-11T19:04:28.245Z,2.68
2019-03-11T19:06:59.309Z,2.68
2019-03-11T19:09:29.789Z,2.66
2019-03-11T19:12:01.542Z,2.68
2019-03-11T19:14:36.857Z,2.65
2019-03-11T19:17:09.166Z,2.69
2019-03-11T19:19:46.247Z,2.66
2019-03-11T19:22:14.987Z,2.59
2019-03-11T19:24:45.437Z,2.68
2019-03-11T19:27:16.059Z,2.64
2019-03-11T19:29:46.879Z,2.67
2019-03-11T19:32:18.460Z,2.71
2019-03-11T19:34:49.144Z,2.70
2019-03-11T19:37:19.800Z,2.73
2019-03-11T19:39:50.353Z,2.74
2019-03-11T19:42:21.071Z,2.76
2019-03-11T19:44:51.799Z,2.77
2019-03-11T19:47:22.241Z,2.77
2019-03-11T19:49:54.097Z,2.74
2019-03-11T19:52:25.695Z,2.76
2019-03-11T19:54:56.322Z,2.77
2019-03-11T19:57:26.962Z,2.76
2019-03-11T19:59:57.447Z,2.79
2019-03-11T20:02:27.957Z,2.81
2019-03-11T20:04:59.834Z,2.84
2019-03-11T20:07:30.627Z,2.85
2019-03-11T20:10:01.629Z,2.80
2019-03-11T20:12:32.728Z,2.88
2019-03-11T20:15:05.926Z,2.92
2019-03-11T20:17:37.431Z,2.94
2019-03-11T20:20:11.310Z,2.93
2019-03-11T20:22:42.905Z,2.97
2019-03-11T20:25:16.539Z,2.98
2019-03-11T20:27:48.457Z,2.95
2019-03-11T20:30:20.766Z,2.93
2019-03-11T20:32:51.571Z,2.93
2019-03-11T20:35:22.134Z,2.93
2019-03-11T20:37:52.730Z,2.93
2019-03-11T20:40:47.160Z,2.94
2019-03-11T20:43:18.730Z,2.95
2019-03-11T20:45:49.488Z,2.97
2019-03-11T20:48:20.860Z,2.96
2019-03-11T20:50:51.304Z,2.94
2019-03-11T20:53:21.924Z,2.96
2019-03-11T20:55:53.476Z,2.99
2019-03-11T20:58:25.470Z,2.95
2019-03-11T21:00:56.274Z,2.97
2019-03-11T21:03:44.994Z,2.98
2019-03-11T21:06:15.888Z,2.94
2019-03-11T21:08:46.472Z,2.97
2019-03-11T21:11:17.201Z,2.98
2019-03-11T21:13:47.683Z,2.97
2019-03-11T21:16:18.329Z,2.97
2019-03-11T21:18:49.101Z,2.91
2019-03-11T21:21:19.617Z,2.84
2019-03-11T21:24:01.608Z,2.81
2019-03-11T21:26:23.328Z,2.81
2019-03-11T21:28:55.259Z,2.80
2019-03-11T21:31:28.066Z,2.73
2019-03-11T21:33:59.277Z,2.72
2019-03-11T21:36:32.194Z,2.75
2019-03-11T21:39:05.465Z,2.74
2019-03-11T21:41:39.121Z,2.74
2019-03-11T21:44:10.432Z,2.76
2019-03-11T21:46:42.192Z,2.84
2019-03-11T21:49:15.308Z,2.82
2019-03-11T21:51:46.462Z,2.82
2019-03-11T21:54:18.179Z,2.86
2019-03-11T21:56:49.323Z,2.82
2019-03-11T21:59:21.738Z,2.82
2019-03-11T22:01:53.381Z,2.85
2019-03-11T22:04:25.176Z,2.90
2019-03-11T22:06:56.541Z,2.93
2019-03-11T22:09:28.659Z,2.91
2019-03-11T22:11:59.618Z,2.87
2019-03-11T22:14:31.299Z,2.85
2019-03-11T22:17:03.788Z,2.75
2019-03-11T22:19:35.865Z,2.75
2019-03-11T22:22:07.548Z,2.61
2019-03-11T22:24:38.708Z,2.64
2019-03-11T22:27:09.951Z,2.59
2019-03-11T22:29:41.758Z,2.54
2019-03-11T22:32:14.271Z,2.50
2019-03-11T22:34:45.129Z,2.52
2019-03-11T22:37:16.929Z,2.54
2019-03-11T22:39:48.668Z,2.53
2019-03-11T22:42:20.078Z,2.54
2019-03-11T22:44:51.506Z,2.54
2019-03-11T22:47:23.188Z,2.55
2019-03-11T22:49:54.926Z,2.60
2019-03-11T22:52:26.475Z,2.54
2019-03-11T22:54:58.473Z,2.54
2019-03-11T22:57:31.028Z,2.43
2019-03-11T23:00:02.788Z,2.34
2019-03-11T23:02:40.040Z,2.30
2019-03-11T23:05:08.506Z,2.18
2019-03-11T23:07:40.837Z,2.15
2019-03-11T23:10:13.704Z,2.14
2019-03-11T23:12:45.850Z,2.08
2019-03-11T23:15:17.060Z,2.06
2019-03-11T23:17:48.549Z,1.97
2019-03-11T23:20:20.205Z,1.93
2019-03-11T23:22:52.801Z,1.87
2019-03-11T23:25:23.692Z,1.83
2019-03-11T23:27:54.650Z,1.79
2019-03-11T23:30:26.367Z,1.80
2019-03-11T23:32:58.586Z,1.76
2019-03-11T23:35:30.759Z,1.74
2019-03-11T23:38:02.423Z,1.76
2019-03-11T23:40:33.920Z,1.70
2019-03-11T23:43:05.369Z,1.65
2019-03-11T23:45:37.208Z,1.61
2019-03-11T23:48:08.103Z,1.60
2019-03-11T23:50:39.345Z,1.61
2019-03-11T23:53:10.062Z,1.40
2019-03-11T23:55:41.147Z,1.56
2019-03-11T23:58:12.785Z,1.53
